Time;durP1;ratioP1;P1;durP2;ratioP2;P2;SDS_P1;SDS_P2;PMS_P1;PMS_P2;Temp;Humidity;BMP_temperature;BMP_pressure;BME280_temperature;BME280_humidity;BME280_pressure;Samples;Min_cycle;Max_cycle;Signal;HPM_P1;HPM_P2
2022/10/05 00:01:25;;;;;;;7.68;4.53;;;17.00;76.10;;;;;;7371629;19;20964;-77
2022/10/05 00:03:59;;;;;;;8.00;4.57;;;16.90;76.10;;;;;;7372774;19;20019;-77
2022/10/05 00:06:31;;;;;;;7.03;3.97;;;17.00;76.00;;;;;;7371589;19;20122;-78
2022/10/05 00:09:01;;;;;;;13.52;4.82;;;17.00;75.70;;;;;;7369331;19;20086;-77
2022/10/05 00:11:30;;;;;;;9.60;4.67;;;17.00;75.70;;;;;;7373714;19;20021;-78
2022/10/05 00:14:00;;;;;;;8.52;4.30;;;16.90;75.20;;;;;;7391420;19;20011;-77
2022/10/05 00:16:31;;;;;;;9.75;4.28;;;16.90;75.00;;;;;;7368082;19;20050;-77
2022/10/05 00:19:01;;;;;;;11.57;4.03;;;16.90;74.80;;;;;;7368485;19;20854;-78
2022/10/05 00:21:31;;;;;;;10.60;4.32;;;16.90;74.60;;;;;;7371542;19;20094;-77
2022/10/05 00:24:04;;;;;;;8.75;4.60;;;16.90;74.50;;;;;;7313107;19;20030;-77
2022/10/05 00:26:34;;;;;;;13.70;4.40;;;16.80;74.40;;;;;;7382274;19;20114;-77
2022/10/05 00:29:04;;;;;;;5.78;4.30;;;16.80;74.30;;;;;;7392216;19;20570;-77
2022/10/05 00:31:37;;;;;;;9.38;4.22;;;16.80;74.20;;;;;;7366657;19;20018;-77
2022/10/05 00:34:07;;;;;;;7.50;4.72;;;16.80;74.10;;;;;;7368550;19;20022;-77
2022/10/05 00:36:37;;;;;;;10.70;4.00;;;16.80;73.70;;;;;;7370812;19;20344;-77
2022/10/05 00:39:05;;;;;;;7.15;3.85;;;16.70;73.50;;;;;;7369239;19;20018;-77
2022/10/05 00:41:46;;;;;;;16.27;4.93;;;16.70;73.30;;;;;;7367329;19;20031;-77
2022/10/05 00:44:29;;;;;;;16.13;4.63;;;16.70;73.50;;;;;;7388644;19;20022;-78
2022/10/05 00:47:08;;;;;;;13.85;3.72;;;16.60;73.40;;;;;;7370914;19;20379;-77
2022/10/05 00:50:11;;;;;;;17.15;4.70;;;16.60;73.20;;;;;;7368515;19;20622;-77
2022/10/05 00:52:47;;;;;;;7.68;4.43;;;16.60;73.30;;;;;;7369155;19;20085;-77
2022/10/05 00:55:25;;;;;;;5.93;3.97;;;16.60;73.30;;;;;;7370333;19;20453;-77
2022/10/05 00:58:07;;;;;;;11.95;4.47;;;16.50;73.30;;;;;;7369285;19;20041;-77
2022/10/05 01:00:45;;;;;;;10.98;4.43;;;16.50;73.50;;;;;;7373213;19;20368;-77
2022/10/05 01:03:23;;;;;;;8.48;3.90;;;16.50;73.30;;;;;;7376140;19;20086;-77
2022/10/05 01:06:05;;;;;;;7.90;4.68;;;16.50;73.20;;;;;;7376698;19;20015;-77
2022/10/05 01:08:45;;;;;;;13.23;4.68;;;16.40;73.80;;;;;;7373943;19;20618;-77
2022/10/05 01:11:20;;;;;;;10.70;4.57;;;16.40;72.90;;;;;;7393075;19;20713;-77
2022/10/05 01:13:57;;;;;;;11.80;4.30;;;16.40;72.50;;;;;;7376622;19;20112;-77
2022/10/05 01:16:31;;;;;;;11.20;4.30;;;16.40;72.90;;;;;;7376046;19;20018;-78
2022/10/05 01:19:13;;;;;;;12.85;4.82;;;16.40;73.00;;;;;;7375827;19;20114;-77
2022/10/05 01:21:46;;;;;;;;;;;16.40;73.00;;;;;;7376051;19;20018;-77
2022/10/05 01:24:43;;;;;;;9.65;4.50;;;16.50;73.40;;;;;;7375792;19;19940;-77
2022/10/05 01:27:23;;;;;;;10.20;4.93;;;16.40;73.30;;;;;;7376661;19;20174;-79
2022/10/05 01:29:59;;;;;;;8.88;4.72;;;16.40;73.40;;;;;;7387547;19;20031;-78
2022/10/05 01:32:35;;;;;;;11.95;4.38;;;16.40;73.40;;;;;;7398936;19;20082;-78
2022/10/05 01:35:18;;;;;;;16.02;4.93;;;16.40;73.40;;;;;;7396514;19;20014;-77
2022/10/05 01:37:59;;;;;;;6.15;4.65;;;16.40;73.10;;;;;;7375882;19;20018;-77
2022/10/05 01:40:35;;;;;;;15.10;4.72;;;16.40;73.00;;;;;;7374707;19;20011;-77
2022/10/05 01:43:13;;;;;;;7.80;4.30;;;16.40;73.10;;;;;;7374055;19;20021;-79
2022/10/05 01:45:55;;;;;;;13.25;4.70;;;16.40;73.20;;;;;;7371890;19;20178;-77
2022/10/05 01:48:38;;;;;;;15.07;4.93;;;16.40;73.20;;;;;;7375965;19;20014;-77
2022/10/05 01:51:19;;;;;;;17.13;4.97;;;16.50;73.20;;;;;;7371810;19;20015;-77
2022/10/05 01:54:00;;;;;;;9.95;4.40;;;16.50;73.10;;;;;;7375950;19;20919;-78
2022/10/05 01:56:38;;;;;;;11.10;4.75;;;16.50;73.00;;;;;;7386174;19;20103;-78
2022/10/05 01:59:17;;;;;;;8.25;4.60;;;16.60;72.70;;;;;;7395401;19;20023;-78
2022/10/05 02:01:56;;;;;;;11.85;4.82;;;16.60;72.70;;;;;;7373869;19;20018;-77
2022/10/05 02:04:31;;;;;;;7.95;4.70;;;16.60;72.70;;;;;;7374350;19;20018;-78
2022/10/05 02:07:01;;;;;;;10.27;4.72;;;16.60;72.70;;;;;;7376603;19;20129;-77
2022/10/05 02:09:34;;;;;;;16.67;4.90;;;16.70;72.50;;;;;;7375521;19;20458;-77
2022/10/05 02:12:09;;;;;;;12.93;5.07;;;16.70;72.70;;;;;;7371807;19;20500;-77
2022/10/05 02:14:43;;;;;;;11.32;5.60;;;16.60;72.70;;;;;;7373259;19;20085;-77
2022/10/05 02:17:19;;;;;;;9.77;6.25;;;16.70;72.70;;;;;;7392027;19;20308;-77
2022/10/05 02:19:55;;;;;;;11.10;7.18;;;16.70;72.90;;;;;;7373097;19;20592;-77
2022/10/05 02:22:29;;;;;;;16.65;7.70;;;16.70;73.50;;;;;;7370524;19;20478;-77
2022/10/05 02:25:01;;;;;;;10.70;8.20;;;16.80;72.50;;;;;;7373332;19;20450;-76
2022/10/05 02:27:33;;;;;;;8.15;7.15;;;16.80;72.50;;;;;;7373759;19;20031;-76
2022/10/05 02:30:07;;;;;;;18.05;7.38;;;16.80;72.50;;;;;;7374426;19;20404;-78
2022/10/05 02:32:43;;;;;;;9.30;5.95;;;16.80;72.60;;;;;;7374446;19;20021;-77
2022/10/05 02:35:17;;;;;;;9.45;6.57;;;16.80;72.70;;;;;;7392923;19;20908;-76
2022/10/05 02:37:56;;;;;;;11.32;6.20;;;16.80;72.70;;;;;;7371962;19;20034;-76
2022/10/05 02:40:37;;;;;;;18.73;8.02;;;16.80;72.60;;;;;;7371727;19;20611;-78
2022/10/05 02:43:18;;;;;;;10.32;7.60;;;16.80;72.60;;;;;;7374180;19;20015;-76
2022/10/05 02:45:54;;;;;;;13.85;7.25;;;16.80;72.70;;;;;;7375678;19;20093;-77
2022/10/05 02:48:35;;;;;;;12.65;6.85;;;16.80;72.80;;;;;;7375940;19;20018;-76
2022/10/05 02:51:17;;;;;;;9.38;5.88;;;16.80;72.90;;;;;;7379942;19;20081;-77
2022/10/05 02:53:49;;;;;;;;;;;16.80;73.00;;;;;;7375192;19;20078;-76
2022/10/05 02:56:27;;;;;;;12.15;5.82;;;16.90;73.40;;;;;;7397180;19;19982;-78
2022/10/05 02:59:02;;;;;;;11.80;6.60;;;16.90;73.50;;;;;;7374333;19;20081;-77
2022/10/05 03:01:36;;;;;;;11.68;5.65;;;16.90;73.50;;;;;;7371696;19;20026;-77
2022/10/05 03:04:19;;;;;;;13.23;6.03;;;16.90;73.60;;;;;;7377315;19;20386;-77
2022/10/05 03:06:53;;;;;;;8.38;5.28;;;16.90;73.80;;;;;;7374069;19;20027;-77
2022/10/05 03:09:25;;;;;;;9.20;5.03;;;16.90;73.90;;;;;;7372505;19;20873;-77
2022/10/05 03:12:04;;;;;;;9.68;5.32;;;16.90;74.00;;;;;;7369879;19;20014;-76
2022/10/05 03:14:45;;;;;;;13.35;5.15;;;16.90;74.10;;;;;;7372217;19;20011;-81
2022/10/05 03:17:17;;;;;;;9.65;5.57;;;16.90;74.20;;;;;;7391477;19;20035;-77
2022/10/05 03:20:04;;;;;;;13.18;5.70;;;17.00;74.30;;;;;;7369425;19;20043;-77
2022/10/05 03:22:46;;;;;;;11.63;4.85;;;17.00;74.20;;;;;;7372675;19;20086;-77
2022/10/05 03:25:29;;;;;;;12.20;5.30;;;17.00;74.00;;;;;;7386206;19;20006;-77
2022/10/05 03:28:06;;;;;;;10.60;5.05;;;17.00;74.10;;;;;;7382432;19;20017;-78
2022/10/05 03:30:45;;;;;;;10.55;5.85;;;17.00;74.10;;;;;;7389927;19;20010;-77
2022/10/05 03:33:22;;;;;;;16.13;5.80;;;17.00;74.10;;;;;;7396462;19;20022;-78
2022/10/05 03:36:01;;;;;;;9.77;5.63;;;17.00;74.30;;;;;;7382675;19;21295;-77
2022/10/05 03:38:39;;;;;;;8.73;5.75;;;17.00;74.50;;;;;;7385175;19;20110;-77
2022/10/05 03:41:17;;;;;;;8.07;5.05;;;17.00;74.80;;;;;;7394999;19;20331;-77
2022/10/05 03:44:03;;;;;;;8.65;4.57;;;17.00;74.80;;;;;;7373519;19;20022;-77
2022/10/05 03:46:51;;;;;;;8.63;4.90;;;17.00;75.00;;;;;;7374025;19;20031;-78
2022/10/05 03:49:27;;;;;;;9.40;5.03;;;17.00;75.10;;;;;;7372212;19;20018;-78
2022/10/05 03:52:06;;;;;;;6.50;5.05;;;17.10;75.10;;;;;;7373484;19;20014;-78
2022/10/05 03:54:40;;;;;;;7.60;5.10;;;17.10;75.10;;;;;;7371754;19;20014;-77
2022/10/05 03:57:13;;;;;;;9.13;4.75;;;17.10;74.80;;;;;;7370101;19;20018;-77
2022/10/05 03:59:52;;;;;;;8.80;5.10;;;17.10;74.80;;;;;;7372808;19;20018;-77
2022/10/05 04:02:27;;;;;;;7.30;4.43;;;17.00;74.60;;;;;;7390427;19;20237;-77
2022/10/05 04:05:00;;;;;;;6.45;4.45;;;17.00;74.70;;;;;;7370534;19;20077;-77
2022/10/05 04:07:51;;;;;;;10.40;4.68;;;17.00;74.80;;;;;;7369708;19;20113;-77
2022/10/05 04:10:26;;;;;;;9.20;5.10;;;16.90;75.00;;;;;;7371239;19;20435;-78
2022/10/05 04:13:00;;;;;;;13.35;5.50;;;16.90;75.00;;;;;;7369931;19;20010;-77
2022/10/05 04:15:33;;;;;;;9.52;4.88;;;16.90;75.00;;;;;;7368459;19;20018;-77
2022/10/05 04:18:10;;;;;;;8.48;4.80;;;16.80;75.10;;;;;;7377500;19;20018;-77
2022/10/05 04:20:44;;;;;;;7.88;4.63;;;16.80;75.10;;;;;;7373345;19;20026;-77
2022/10/05 04:23:30;;;;;;;7.28;4.28;;;16.70;75.10;;;;;;7391533;19;20041;-77
2022/10/05 04:26:04;;;;;;;8.70;4.47;;;16.70;75.20;;;;;;7368614;19;20027;-77
2022/10/05 04:28:43;;;;;;;5.03;4.20;;;16.70;75.20;;;;;;7368258;19;20038;-77
2022/10/05 04:31:15;;;;;;;7.25;4.43;;;16.60;75.20;;;;;;7368710;19;20022;-77
2022/10/05 04:33:59;;;;;;;9.82;4.15;;;16.70;75.20;;;;;;7368247;19;20023;-77
2022/10/05 04:36:36;;;;;;;8.10;4.45;;;16.60;75.20;;;;;;7370188;19;20056;-77
2022/10/05 04:39:21;;;;;;;7.63;4.60;;;16.60;75.10;;;;;;7369047;19;20453;-77
2022/10/05 04:42:06;;;;;;;5.07;4.00;;;16.60;75.20;;;;;;7368733;19;20145;-78
2022/10/05 04:44:57;;;;;;;7.43;4.63;;;16.60;75.10;;;;;;7369249;19;20327;-77
2022/10/05 04:47:54;;;;;;;9.57;5.05;;;16.60;75.10;;;;;;7387502;19;20433;-77
2022/10/05 04:50:35;;;;;;;17.98;9.77;;;16.60;75.00;;;;;;7368971;19;20014;-77
2022/10/05 04:53:15;;;;;;;15.15;8.32;;;16.50;74.70;;;;;;7368352;19;20070;-78
2022/10/05 04:55:54;;;;;;;17.05;8.48;;;16.50;74.70;;;;;;7369178;19;20022;-78
2022/10/05 04:58:33;;;;;;;19.42;7.97;;;16.50;74.70;;;;;;7367918;19;20010;-77
2022/10/05 05:01:14;;;;;;;10.10;5.20;;;16.50;74.70;;;;;;7368145;19;20403;-77
2022/10/05 05:04:04;;;;;;;17.02;5.68;;;16.50;74.60;;;;;;7366226;19;20021;-77
2022/10/05 05:06:41;;;;;;;13.35;5.28;;;16.40;75.30;;;;;;7368958;19;20011;-77
2022/10/05 05:09:54;;;;;;;9.27;5.03;;;16.40;74.30;;;;;;7365754;19;20018;-77
2022/10/05 05:12:36;;;;;;;12.57;4.93;;;16.40;74.60;;;;;;7367621;19;20770;-77
2022/10/05 05:15:19;;;;;;;12.55;5.15;;;16.30;74.40;;;;;;7369681;19;20402;-77
2022/10/05 05:18:08;;;;;;;13.82;4.63;;;16.30;74.40;;;;;;7368392;19;20041;-76
2022/10/05 05:20:48;;;;;;;9.20;4.40;;;16.30;74.30;;;;;;7367561;19;20317;-77
2022/10/05 05:23:25;;;;;;;10.00;4.70;;;16.20;74.20;;;;;;7385371;19;20606;-77
2022/10/05 05:26:04;;;;;;;7.70;4.07;;;16.20;74.30;;;;;;7368907;19;20035;-77
2022/10/05 05:28:45;;;;;;;8.45;4.38;;;16.20;74.20;;;;;;7365441;19;20093;-76
2022/10/05 05:31:22;;;;;;;13.00;5.07;;;16.10;75.10;;;;;;7368598;19;20463;-78
2022/10/05 05:34:04;;;;;;;7.15;5.10;;;16.10;74.40;;;;;;7367576;19;20024;-77
2022/10/05 05:36:43;;;;;;;15.60;8.35;;;16.10;74.50;;;;;;7367715;19;20360;-77
2022/10/05 05:39:29;;;;;;;10.63;5.45;;;16.20;74.60;;;;;;7369289;19;20014;-77
2022/10/05 05:42:03;;;;;;;9.55;5.60;;;16.10;74.60;;;;;;7385732;19;20031;-77
2022/10/05 05:44:39;;;;;;;9.65;5.57;;;16.10;74.60;;;;;;7375986;19;20022;-77
2022/10/05 05:47:20;;;;;;;13.48;6.00;;;16.10;74.80;;;;;;7395959;19;20019;-77
2022/10/05 05:50:03;;;;;;;8.32;5.18;;;16.10;74.90;;;;;;7371081;19;20022;-78
2022/10/05 05:52:37;;;;;;;11.65;4.93;;;16.10;75.00;;;;;;7374379;19;20019;-77
2022/10/05 05:55:15;;;;;;;8.40;4.82;;;16.10;75.10;;;;;;7373754;19;20387;-77
2022/10/05 05:57:48;;;;;;;7.50;5.07;;;16.10;75.10;;;;;;7373106;19;20046;-77
2022/10/05 06:00:23;;;;;;;17.38;6.85;;;16.10;75.10;;;;;;7373324;19;20825;-77
2022/10/05 06:02:59;;;;;;;7.45;5.05;;;16.10;75.30;;;;;;7371526;19;20470;-77
2022/10/05 06:05:35;;;;;;;7.93;4.97;;;16.10;75.20;;;;;;7393868;19;20019;-77
2022/10/05 06:08:10;;;;;;;8.98;5.15;;;16.10;75.20;;;;;;7374596;19;20415;-77
2022/10/05 06:10:44;;;;;;;13.02;5.22;;;16.10;75.10;;;;;;7371571;19;20026;-77
2022/10/05 06:13:19;;;;;;;15.77;5.13;;;16.10;74.90;;;;;;7373102;19;20018;-77
2022/10/05 06:15:55;;;;;;;10.45;5.18;;;16.10;74.80;;;;;;7374942;19;20014;-77
2022/10/05 06:18:25;;;;;;;14.38;5.53;;;16.10;74.60;;;;;;7371548;19;20022;-77
2022/10/05 06:21:00;;;;;;;10.05;4.90;;;16.10;74.40;;;;;;7371121;19;20453;-77
2022/10/05 06:23:36;;;;;;;9.10;5.45;;;16.10;74.10;;;;;;7384912;19;20031;-77
2022/10/05 06:26:31;;;;;;;9.57;5.57;;;16.10;74.10;;;;;;7396627;19;20046;-77
2022/10/05 06:29:05;;;;;;;14.27;5.20;;;16.10;74.10;;;;;;7375266;19;20018;-77
2022/10/05 06:32:01;;;;;;;12.52;5.13;;;16.10;74.00;;;;;;7372804;19;20768;-77
2022/10/05 06:34:45;;;;;;;8.02;4.85;;;16.10;74.10;;;;;;7373137;19;20010;-78
2022/10/05 06:37:20;;;;;;;8.85;4.50;;;16.10;74.20;;;;;;7372642;19;20011;-78
2022/10/05 06:40:12;;;;;;;9.85;4.40;;;16.10;74.10;;;;;;7372878;19;20014;-77
2022/10/05 06:42:52;;;;;;;7.35;4.57;;;16.10;74.20;;;;;;7372493;19;20039;-77
2022/10/05 06:45:32;;;;;;;10.05;4.40;;;16.20;74.40;;;;;;7374504;19;20093;-77
2022/10/05 06:48:11;;;;;;;12.80;4.28;;;16.20;74.40;;;;;;7374082;19;20110;-77
2022/10/05 06:50:44;;;;;;;9.27;5.10;;;16.30;74.60;;;;;;7374081;19;20026;-79
2022/10/05 06:53:30;;;;;;;14.23;4.68;;;16.30;74.70;;;;;;7393706;19;20765;-77
2022/10/05 06:56:06;;;;;;;6.40;4.78;;;16.40;74.70;;;;;;7373033;19;20010;-77
2022/10/05 06:58:51;;;;;;;7.15;4.65;;;16.40;74.70;;;;;;7376297;19;20062;-77
2022/10/05 07:01:31;;;;;;;17.25;5.10;;;16.40;74.90;;;;;;7378476;19;20034;-77
2022/10/05 07:04:21;;;;;;;7.57;4.30;;;16.50;75.00;;;;;;7385772;19;20019;-76
2022/10/05 07:06:55;;;;;;;5.57;4.30;;;16.50;75.10;;;;;;7397970;19;20022;-76
2022/10/05 07:09:34;;;;;;;6.70;4.63;;;16.60;75.20;;;;;;7395547;19;20038;-77
2022/10/05 07:12:20;;;;;;;8.38;4.65;;;16.60;75.20;;;;;;7381696;19;20118;-77
2022/10/05 07:15:17;;;;;;;10.32;5.80;;;16.60;75.30;;;;;;7382250;19;20099;-78
2022/10/05 07:17:58;;;;;;;10.90;5.25;;;16.60;75.70;;;;;;7380591;19;20014;-77
2022/10/05 07:20:34;;;;;;;10.05;4.85;;;16.70;76.00;;;;;;7398267;19;20070;-77
2022/10/05 07:23:20;;;;;;;9.18;5.00;;;16.70;76.00;;;;;;7373874;19;20062;-77
2022/10/05 07:25:57;;;;;;;8.20;4.70;;;16.70;76.10;;;;;;7372194;19;20014;-77
2022/10/05 07:28:33;;;;;;;12.88;5.40;;;16.80;76.30;;;;;;7371819;19;20059;-77
2022/10/05 07:31:10;;;;;;;5.90;4.38;;;16.70;76.60;;;;;;7373466;19;20097;-77
2022/10/05 07:33:46;;;;;;;6.82;4.13;;;16.70;76.70;;;;;;7374167;19;20094;-78
2022/10/05 07:39:11;;;;;;;10.40;4.68;;;16.90;76.70;;;;;;7372960;19;20025;-77
2022/10/05 07:41:47;;;;;;;5.88;3.50;;;16.90;76.50;;;;;;7371215;19;20023;-77
2022/10/05 07:44:24;;;;;;;5.07;4.00;;;16.90;76.50;;;;;;7390922;19;20438;-76
2022/10/05 07:46:56;;;;;;;13.15;4.05;;;17.00;76.40;;;;;;7369576;19;20052;-76
2022/10/05 07:49:34;;;;;;;7.13;3.63;;;16.70;76.80;;;;;;7370401;19;20010;-76
2022/10/05 07:52:12;;;;;;;10.15;3.78;;;16.90;77.00;;;;;;7369499;19;20622;-77
2022/10/05 07:54:49;;;;;;;6.07;3.88;;;17.00;76.70;;;;;;7369366;19;20018;-76
2022/10/05 07:57:26;;;;;;;8.20;3.90;;;17.10;76.30;;;;;;7370332;19;20025;-77
2022/10/05 08:00:02;;;;;;;8.13;4.38;;;17.10;75.90;;;;;;7370459;19;20029;-76
2022/10/05 08:02:37;;;;;;;6.72;4.22;;;17.10;75.80;;;;;;7366984;19;20014;-77
2022/10/05 08:05:13;;;;;;;6.30;3.95;;;17.10;75.90;;;;;;7390341;19;20022;-77
2022/10/05 08:07:45;;;;;;;5.38;3.72;;;17.10;76.00;;;;;;7368030;19;20025;-76
2022/10/05 08:10:30;;;;;;;6.00;4.15;;;17.20;76.10;;;;;;7367178;19;20040;-76
2022/10/05 08:13:09;;;;;;;7.55;3.83;;;17.20;76.20;;;;;;7367490;19;20018;-76
2022/10/05 08:15:42;;;;;;;9.75;4.50;;;17.30;76.20;;;;;;7369729;19;20478;-76
2022/10/05 08:18:19;;;;;;;7.00;4.28;;;17.20;76.40;;;;;;7369817;19;20011;-76
2022/10/05 08:20:51;;;;;;;5.97;4.20;;;17.20;76.90;;;;;;7370809;19;20026;-76
2022/10/05 08:23:32;;;;;;;11.95;4.22;;;17.20;77.30;;;;;;7389515;19;20015;-77
2022/10/05 08:26:14;;;;;;;7.68;3.90;;;17.30;77.00;;;;;;7371477;19;20021;-77
2022/10/05 08:28:51;;;;;;;8.85;4.22;;;17.40;76.90;;;;;;7376838;19;20540;-76
2022/10/05 08:31:25;;;;;;;7.22;3.95;;;17.60;76.80;;;;;;7371509;19;20074;-78
2022/10/05 08:34:00;;;;;;;13.02;3.80;;;17.50;77.20;;;;;;7369858;19;20022;-77
2022/10/05 08:36:52;;;;;;;8.93;3.50;;;17.60;77.40;;;;;;7369369;19;20074;-77
2022/10/05 08:39:23;;;;;;;;;;;17.80;77.10;;;;;;7369954;19;20038;-77
2022/10/05 08:42:21;;;;;;;6.07;3.17;;;18.10;76.80;;;;;;7369279;19;20091;-78
2022/10/05 08:45:14;;;;;;;7.78;3.72;;;18.20;75.90;;;;;;7367008;19;20014;-77
2022/10/05 08:48:12;;;;;;;8.60;3.67;;;18.00;76.30;;;;;;7366738;19;20014;-77
2022/10/05 08:51:09;;;;;;;10.75;3.95;;;18.10;76.50;;;;;;7368149;19;20022;-77
2022/10/05 08:53:58;;;;;;;9.00;3.70;;;18.10;76.70;;;;;;7366565;19;20072;-78
2022/10/05 08:56:43;;;;;;;8.73;4.03;;;18.00;76.60;;;;;;7389071;19;20021;-78
2022/10/05 08:59:43;;;;;;;12.70;4.28;;;18.10;76.40;;;;;;7367885;19;20019;-78
2022/10/05 09:02:25;;;;;;;9.93;3.88;;;18.10;76.40;;;;;;7367838;19;20014;-78
2022/10/05 09:05:25;;;;;;;8.32;4.13;;;18.00;76.90;;;;;;7367955;19;20014;-78
2022/10/05 09:08:29;;;;;;;10.57;4.50;;;18.10;76.90;;;;;;7366728;19;20006;-78
2022/10/05 09:11:13;;;;;;;11.27;4.57;;;18.10;76.30;;;;;;7368187;19;20018;-78
2022/10/05 09:14:00;;;;;;;9.70;4.30;;;18.20;76.30;;;;;;7367840;19;20063;-78
2022/10/05 09:16:51;;;;;;;9.80;4.10;;;18.40;76.00;;;;;;7368482;19;20089;-79
2022/10/05 09:19:51;;;;;;;7.35;3.65;;;18.30;75.70;;;;;;7365897;19;20018;-77
2022/10/05 09:22:37;;;;;;;7.82;3.90;;;18.40;75.30;;;;;;7372834;19;20419;-77
2022/10/05 09:25:17;;;;;;;9.48;3.90;;;18.50;75.20;;;;;;7375093;19;20413;-78
2022/10/05 09:27:53;;;;;;;9.93;3.53;;;18.60;74.80;;;;;;7372336;19;20039;-77
2022/10/05 09:30:34;;;;;;;7.72;3.45;;;18.70;74.70;;;;;;7374570;19;20010;-77
2022/10/05 09:33:39;;;;;;;6.90;3.30;;;18.70;73.80;;;;;;7376135;19;20010;-77
2022/10/05 09:36:34;;;;;;;6.55;2.80;;;18.30;74.40;;;;;;7375281;19;20314;-77
2022/10/05 09:39:28;;;;;;;5.43;3.40;;;18.50;73.90;;;;;;7373985;19;20516;-77
2022/10/05 09:42:41;;;;;;;8.13;3.60;;;18.60;73.10;;;;;;7376380;19;20014;-77
2022/10/05 09:45:43;;;;;;;4.90;2.80;;;18.50;73.40;;;;;;7371913;19;20015;-77
2022/10/05 09:48:51;;;;;;;5.57;2.75;;;18.40;73.10;;;;;;7374149;19;20018;-77
2022/10/05 09:51:44;;;;;;;5.90;2.92;;;18.50;73.00;;;;;;7382745;19;20386;-77
2022/10/05 09:54:42;;;;;;;9.93;3.92;;;18.20;74.10;;;;;;7383780;19;20464;-77
2022/10/05 09:57:58;;;;;;;6.47;2.88;;;18.30;74.20;;;;;;7374680;19;20018;-77
2022/10/05 10:00:38;;;;;;;7.63;2.63;;;18.20;73.00;;;;;;7372367;19;20010;-77
2022/10/05 10:03:43;;;;;;;6.07;2.55;;;18.30;73.20;;;;;;7371537;19;20635;-77
2022/10/05 10:06:23;;;;;;;10.27;2.65;;;18.40;72.40;;;;;;7371311;19;20022;-77
2022/10/05 10:09:19;;;;;;;5.78;2.20;;;18.40;70.90;;;;;;7372996;19;20019;-77
2022/10/05 10:12:31;;;;;;;7.97;2.28;;;18.20;71.30;;;;;;7376460;19;20530;-78
2022/10/05 10:15:33;;;;;;;6.63;2.25;;;18.40;71.00;;;;;;7372812;19;20485;-78
2022/10/05 10:18:32;;;;;;;4.40;2.70;;;18.30;72.30;;;;;;7372196;19;20574;-78
2022/10/05 10:21:12;;;;;;;4.90;2.20;;;18.40;71.60;;;;;;7368447;19;20082;-78
2022/10/05 10:24:01;;;;;;;3.03;2.30;;;18.50;71.60;;;;;;7374666;19;20094;-78
2022/10/05 10:26:53;;;;;;;5.03;2.13;;;18.60;71.70;;;;;;7378944;19;20019;-78
2022/10/05 10:29:50;;;;;;;4.22;2.60;;;18.70;71.00;;;;;;7395673;19;20046;-78
2022/10/05 10:32:52;;;;;;;5.60;2.33;;;18.80;70.50;;;;;;7370699;19;20024;-78
2022/10/05 10:35:32;;;;;;;4.32;2.53;;;18.90;70.90;;;;;;7370062;19;20434;-78
2022/10/05 10:38:31;;;;;;;3.90;2.25;;;19.10;70.50;;;;;;7371897;19;20015;-78
2022/10/05 10:41:30;;;;;;;4.93;2.50;;;19.00;70.70;;;;;;7370742;19;20015;-78
2022/10/05 10:44:37;;;;;;;4.53;2.05;;;19.20;69.40;;;;;;7368820;19;20033;-78
2022/10/05 10:47:31;;;;;;;8.00;1.95;;;18.70;70.40;;;;;;7376169;19;20022;-78
2022/10/05 10:50:28;;;;;;;6.65;2.30;;;18.60;70.10;;;;;;7381968;19;20118;-78
2022/10/05 10:53:09;;;;;;;4.22;2.10;;;18.70;70.20;;;;;;7370934;19;20109;-78
2022/10/05 10:55:47;;;;;;;9.45;2.35;;;18.70;70.20;;;;;;7371421;19;20014;-78
2022/10/05 10:59:09;;;;;;;5.07;2.15;;;18.70;70.20;;;;;;7369314;19;20113;-78
2022/10/05 11:01:45;;;;;;;8.00;2.13;;;18.90;70.20;;;;;;7369187;19;20033;-77
2022/10/05 11:04:53;;;;;;;4.75;1.75;;;19.00;70.60;;;;;;7369619;19;20098;-77
2022/10/05 11:07:50;;;;;;;3.00;1.80;;;19.00;70.00;;;;;;7370721;19;20574;-77
2022/10/05 11:10:37;;;;;;;3.00;1.73;;;18.90;70.20;;;;;;7369858;19;20117;-77
2022/10/05 11:13:35;;;;;;;4.35;1.75;;;19.10;69.70;;;;;;7370409;19;20093;-76
2022/10/05 11:16:33;;;;;;;3.25;1.60;;;19.00;69.30;;;;;;7370452;19;20885;-78
2022/10/05 11:19:47;;;;;;;4.97;1.80;;;19.10;68.70;;;;;;7372914;19;20022;-77
2022/10/05 11:22:32;;;;;;;7.03;2.10;;;19.10;68.40;;;;;;7372362;19;20014;-77
2022/10/05 11:25:27;;;;;;;5.97;1.90;;;19.10;69.30;;;;;;7368842;19;20045;-77
2022/10/05 11:28:05;;;;;;;2.47;1.50;;;19.40;69.00;;;;;;7367238;19;20024;-79
2022/10/05 11:31:03;;;;;;;2.45;1.70;;;19.30;68.40;;;;;;7369114;19;20014;-77
2022/10/05 11:34:14;;;;;;;6.53;1.67;;;19.20;68.80;;;;;;7369478;19;20030;-78
2022/10/05 11:37:07;;;;;;;3.90;1.60;;;19.50;68.60;;;;;;7367298;19;20025;-77
2022/10/05 11:39:44;;;;;;;3.78;1.70;;;19.50;68.00;;;;;;7366790;19;20006;-77
2022/10/05 11:42:37;;;;;;;3.83;1.90;;;19.50;68.40;;;;;;7367587;19;20014;-79
2022/10/05 11:45:23;;;;;;;5.25;1.83;;;19.50;68.60;;;;;;7367348;19;20046;-79
2022/10/05 11:48:20;;;;;;;7.55;2.05;;;19.40;68.70;;;;;;7371326;19;20053;-79
2022/10/05 11:51:00;;;;;;;4.40;2.00;;;19.60;69.20;;;;;;7369463;19;20182;-77
2022/10/05 11:53:34;;;;;;;10.07;1.95;;;19.60;69.50;;;;;;7384047;19;20057;-78
2022/10/05 11:56:10;;;;;;;8.00;1.80;;;19.70;69.10;;;;;;7387090;19;20023;-77
2022/10/05 11:58:49;;;;;;;4.50;2.00;;;19.60;69.40;;;;;;7368751;19;20044;-77
2022/10/05 12:01:25;;;;;;;5.82;2.17;;;19.60;69.80;;;;;;7371419;19;20035;-77
2022/10/05 12:04:01;;;;;;;3.75;1.65;;;19.80;69.50;;;;;;7370459;19;20050;-78
2022/10/05 12:06:51;;;;;;;3.85;1.80;;;19.80;69.40;;;;;;7368706;19;20097;-76
2022/10/05 12:09:34;;;;;;;7.72;1.77;;;20.00;69.10;;;;;;7369282;19;20018;-77
2022/10/05 12:12:14;;;;;;;6.03;1.88;;;20.20;68.30;;;;;;7370398;19;20101;-77
2022/10/05 12:14:58;;;;;;;9.52;2.20;;;20.10;68.80;;;;;;7367328;19;20018;-77
2022/10/05 12:17:37;;;;;;;3.45;1.85;;;20.20;68.30;;;;;;7392594;19;20448;-79
2022/10/05 12:20:19;;;;;;;5.63;1.90;;;20.30;67.90;;;;;;7371098;19;20022;-77
2022/10/05 12:22:53;;;;;;;4.18;1.88;;;20.50;67.50;;;;;;7368023;19;20014;-77
2022/10/05 12:25:28;;;;;;;7.95;1.88;;;20.70;66.30;;;;;;7371778;19;20025;-77
2022/10/05 12:28:03;;;;;;;8.15;1.98;;;20.50;65.90;;;;;;7372248;19;20141;-79
2022/10/05 12:30:56;;;;;;;12.35;2.13;;;20.40;66.30;;;;;;7372463;19;20082;-76
2022/10/05 12:33:32;;;;;;;4.20;1.77;;;20.40;67.00;;;;;;7371924;19;20014;-76
2022/10/05 12:36:06;;;;;;;5.72;2.05;;;20.60;66.50;;;;;;7372234;19;20006;-76
2022/10/05 12:38:39;;;;;;;15.35;1.95;;;20.80;67.00;;;;;;7370246;19;20028;-77
2022/10/05 12:41:19;;;;;;;7.07;1.80;;;20.70;65.90;;;;;;7395858;19;20432;-76
2022/10/05 12:43:58;;;;;;;6.80;2.05;;;20.70;66.00;;;;;;7381823;19;20043;-78
2022/10/05 12:46:39;;;;;;;9.15;2.28;;;20.80;65.90;;;;;;7376933;19;20101;-76
2022/10/05 12:49:23;;;;;;;;;;;20.80;65.70;;;;;;7370519;19;20021;-77
2022/10/05 12:51:59;;;;;;;4.78;1.70;;;20.90;65.30;;;;;;7367898;19;19925;-77
2022/10/05 12:54:44;;;;;;;4.70;1.98;;;20.80;65.30;;;;;;7371777;19;20016;-78
2022/10/05 12:57:24;;;;;;;8.95;1.73;;;21.00;64.70;;;;;;7377162;19;20039;-77
2022/10/05 12:59:58;;;;;;;5.88;1.80;;;21.20;64.70;;;;;;7375997;19;20033;-77
2022/10/05 13:02:40;;;;;;;4.07;2.00;;;21.20;63.60;;;;;;7395929;19;20322;-77
2022/10/05 13:05:28;;;;;;;2.78;1.80;;;21.10;64.50;;;;;;7374579;19;20023;-77
2022/10/05 13:08:16;;;;;;;5.05;2.17;;;21.00;64.20;;;;;;7374988;19;20018;-77
2022/10/05 13:10:48;;;;;;;5.75;2.30;;;21.00;65.20;;;;;;7375267;19;20109;-77
2022/10/05 13:13:36;;;;;;;11.70;2.85;;;21.10;65.50;;;;;;7374786;19;20022;-76
2022/10/05 13:16:15;;;;;;;6.60;2.20;;;21.10;64.10;;;;;;7373950;19;20018;-77
2022/10/05 13:19:00;;;;;;;7.18;2.35;;;20.90;64.30;;;;;;7374552;19;20014;-77
2022/10/05 13:21:37;;;;;;;9.38;2.63;;;21.10;64.20;;;;;;7374799;19;20042;-77
2022/10/05 13:24:16;;;;;;;7.28;2.33;;;21.20;64.00;;;;;;7373101;19;20023;-77
2022/10/05 13:26:48;;;;;;;7.18;2.40;;;21.40;64.20;;;;;;7372126;19;20014;-77
2022/10/05 13:29:23;;;;;;;8.88;2.92;;;21.40;63.50;;;;;;7395142;19;20030;-77
2022/10/05 13:31:59;;;;;;;7.65;2.58;;;21.40;63.90;;;;;;7372182;19;20015;-77
2022/10/05 13:34:37;;;;;;;8.55;2.03;;;21.40;64.10;;;;;;7374248;19;20105;-77
2022/10/05 13:37:18;;;;;;;12.60;2.80;;;21.40;63.90;;;;;;7374096;19;20010;-77
2022/10/05 13:40:02;;;;;;;6.93;2.60;;;21.40;63.70;;;;;;7374531;19;20045;-77
2022/10/05 13:42:42;;;;;;;13.00;3.20;;;21.40;63.80;;;;;;7375845;19;20037;-77
2022/10/05 13:45:17;;;;;;;11.10;3.22;;;21.50;63.70;;;;;;7372794;19;20490;-77
2022/10/05 13:48:01;;;;;;;6.70;2.30;;;21.20;64.10;;;;;;7375986;19;20086;-77
2022/10/05 13:50:35;;;;;;;11.25;3.28;;;21.00;64.80;;;;;;7385353;19;20450;-78
2022/10/05 13:53:14;;;;;;;6.32;2.92;;;21.00;65.00;;;;;;7395307;19;20029;-77
2022/10/05 13:55:48;;;;;;;13.30;2.90;;;21.10;64.80;;;;;;7373695;19;20031;-77
2022/10/05 13:58:25;;;;;;;9.55;2.90;;;21.00;64.80;;;;;;7374156;19;20019;-77
2022/10/05 14:01:00;;;;;;;20.48;3.40;;;20.80;65.50;;;;;;7375449;19;20011;-78
2022/10/05 14:03:33;;;;;;;8.88;3.40;;;20.90;65.40;;;;;;7375155;19;20014;-77